Time;durP1;ratioP1;P1;durP2;ratioP2;P2;SDS_P1;SDS_P2;PMS_P1;PMS_P2;Temp;Humidity;BMP_temperature;BMP_pressure;BME280_temperature;BME280_humidity;BME280_pressure;Samples;Min_cycle;Max_cycle;Signal;HPM_P1;HPM_P2
2021/12/25 00:00:35;;;;;;;4.60;4.22;;;;;;;;;;5048972;28;20222;-77
2021/12/25 00:03:02;;;;;;;4.05;3.75;;;;;;;;;;5054415;28;20676;-77
2021/12/25 00:05:30;;;;;;;4.95;4.45;;;;;;;;;;5045707;28;20598;-77
2021/12/25 00:07:57;;;;;;;4.95;4.55;;;;;;;;;;5058824;28;20277;-73
2021/12/25 00:10:24;;;;;;;5.80;5.13;;;;;;;;;;5048552;28;20555;-78
2021/12/25 00:12:53;;;;;;;4.75;4.32;;;;;;;;;;5045613;28;20681;-77
2021/12/25 00:15:20;;;;;;;4.38;3.85;;;;;;;;;;5050563;28;20621;-77
2021/12/25 00:17:49;;;;;;;5.63;4.50;;;;;;;;;;5046883;28;20202;-78
2021/12/25 00:20:16;;;;;;;5.72;5.28;;;;;;;;;;5049222;28;20202;-79
2021/12/25 00:22:43;;;;;;;4.88;4.38;;;;;;;;;;5050976;28;20658;-78
2021/12/25 00:25:10;;;;;;;5.15;4.75;;;;;;;;;;5051167;28;20213;-78
2021/12/25 00:27:52;;;;;;;4.60;4.20;;;;;;;;;;5046396;28;20207;-78
2021/12/25 00:30:26;;;;;;;4.30;3.95;;;;;;;;;;5054310;28;20237;-78
2021/12/25 00:33:00;;;;;;;5.15;4.72;;;;;;;;;;5046594;28;20226;-78
2021/12/25 00:35:27;;;;;;;4.13;3.83;;;;;;;;;;5053440;28;20650;-78
2021/12/25 00:37:54;;;;;;;5.10;4.70;;;;;;;;;;5050483;28;20673;-79
2021/12/25 00:40:22;;;;;;;5.13;4.65;;;;;;;;;;5047399;28;20675;-78
2021/12/25 00:42:49;;;;;;;6.00;5.45;;;;;;;;;;5043566;28;20191;-79
2021/12/25 00:45:17;;;;;;;5.43;4.45;;;;;;;;;;5050773;28;20218;-77
2021/12/25 00:47:44;;;;;;;6.10;5.25;;;;;;;;;;5050420;28;20203;-78
2021/12/25 00:50:13;;;;;;;5.13;4.63;;;;;;;;;;5065050;28;20198;-79
2021/12/25 00:52:40;;;;;;;5.80;5.30;;;;;;;;;;5053789;28;20213;-79
2021/12/25 00:55:08;;;;;;;6.25;5.70;;;;;;;;;;5046354;28;20207;-78
2021/12/25 00:57:36;;;;;;;5.53;4.88;;;;;;;;;;5046754;28;20195;-79
2021/12/25 01:00:09;;;;;;;6.35;5.85;;;;;;;;;;5043942;28;20564;-79
2021/12/25 01:02:36;;;;;;;5.55;5.10;;;;;;;;;;5040895;28;20214;-80
2021/12/25 01:05:03;;;;;;;6.20;5.70;;;;;;;;;;5053138;28;20225;-79
2021/12/25 01:07:32;;;;;;;5.90;5.40;;;;;;;;;;5049796;28;20222;-79
2021/12/25 01:10:02;;;;;;;8.18;6.38;;;;;;;;;;5049875;28;20199;-79
2021/12/25 01:12:32;;;;;;;5.93;5.43;;;;;;;;;;5048097;28;20202;-80
2021/12/25 01:15:04;;;;;;;6.93;6.32;;;;;;;;;;5048232;28;20687;-78
2021/12/25 01:20:38;;;;;;;6.15;5.57;;;;;;;;;;5042972;28;20344;-79
2021/12/25 01:26:09;;;;;;;6.00;5.40;;;;;;;;;;5046039;28;20303;-79
2021/12/25 01:31:42;;;;;;;6.15;5.55;;;;;;;;;;5025519;28;20199;-80
2021/12/25 01:34:35;;;;;;;5.43;4.78;;;;;;;;;;5021682;28;20571;-80
2021/12/25 01:37:08;;;;;;;6.13;5.63;;;;;;;;;;5039402;28;20206;-79
2021/12/25 01:39:54;;;;;;;6.20;5.60;;;;;;;;;;5067644;28;20205;-80
2021/12/25 01:47:55;;;;;;;7.18;6.50;;;;;;;;;;5044842;28;20276;-80
2021/12/25 01:50:23;;;;;;;5.78;5.28;;;;;;;;;;5058013;28;20294;-80
2021/12/25 01:52:50;;;;;;;6.07;5.47;;;;;;;;;;5045369;28;20580;-79
2021/12/25 01:55:23;;;;;;;5.80;5.07;;;;;;;;;;5047569;28;20206;-79
2021/12/25 01:57:50;;;;;;;6.90;5.93;;;;;;;;;;5046695;28;20196;-79
2021/12/25 02:00:20;;;;;;;6.78;6.15;;;;;;;;;;5048999;28;20219;-78
2021/12/25 02:02:47;;;;;;;6.45;5.88;;;;;;;;;;5042435;28;20206;-78
2021/12/25 02:05:14;;;;;;;5.97;5.38;;;;;;;;;;5049388;28;20590;-80
2021/12/25 02:07:42;;;;;;;7.10;6.40;;;;;;;;;;5047182;28;20202;-79
2021/12/25 02:10:09;;;;;;;6.53;5.40;;;;;;;;;;5057320;28;20217;-80
2021/12/25 02:12:37;;;;;;;7.88;6.22;;;;;;;;;;5046091;28;20203;-78
2021/12/25 02:15:11;;;;;;;6.70;6.07;;;;;;;;;;5047580;28;20286;-79
2021/12/25 02:17:54;;;;;;;7.68;6.50;;;;;;;;;;5045752;28;20202;-78
2021/12/25 02:20:28;;;;;;;8.00;6.32;;;;;;;;;;5042789;28;20225;-79
2021/12/25 02:23:01;;;;;;;6.45;5.85;;;;;;;;;;5053309;28;20199;-80
2021/12/25 02:25:29;;;;;;;8.40;7.18;;;;;;;;;;5046309;28;20214;-79
2021/12/25 02:27:56;;;;;;;8.60;7.70;;;;;;;;;;5048021;28;20227;-80
2021/12/25 02:30:23;;;;;;;8.82;6.72;;;;;;;;;;5061149;28;20209;-80
2021/12/25 02:32:50;;;;;;;9.68;7.07;;;;;;;;;;5047622;28;20565;-79
2021/12/25 02:35:18;;;;;;;7.68;6.95;;;;;;;;;;5048164;28;20617;-79
2021/12/25 02:37:47;;;;;;;6.80;6.10;;;;;;;;;;5050921;28;20195;-79
2021/12/25 02:40:15;;;;;;;7.22;6.53;;;;;;;;;;5050099;28;20574;-79
2021/12/25 02:42:42;;;;;;;6.95;5.95;;;;;;;;;;5051138;28;20245;-79
2021/12/25 02:45:15;;;;;;;6.50;5.95;;;;;;;;;;5051060;28;20211;-79
2021/12/25 02:47:43;;;;;;;5.72;5.22;;;;;;;;;;5054097;28;20644;-79
2021/12/25 02:50:11;;;;;;;7.03;6.43;;;;;;;;;;5057266;28;20195;-80
2021/12/25 02:52:38;;;;;;;6.55;5.95;;;;;;;;;;5051268;28;20203;-80
2021/12/25 02:55:07;;;;;;;6.93;6.32;;;;;;;;;;5050655;28;20198;-79
2021/12/25 02:57:34;;;;;;;6.47;5.85;;;;;;;;;;5058808;28;20197;-80
2021/12/25 03:00:01;;;;;;;7.63;6.93;;;;;;;;;;5045410;28;20233;-80
2021/12/25 03:02:28;;;;;;;6.32;5.68;;;;;;;;;;5049145;28;20547;-80
2021/12/25 03:04:55;;;;;;;6.13;5.63;;;;;;;;;;5053651;28;20214;-80
2021/12/25 03:07:22;;;;;;;6.25;5.65;;;;;;;;;;5059651;28;20213;-80
2021/12/25 03:09:50;;;;;;;6.30;5.70;;;;;;;;;;5053438;28;20203;-80
2021/12/25 03:12:27;;;;;;;5.93;5.38;;;;;;;;;;5047378;28;20647;-80
2021/12/25 03:17:38;;;;;;;4.93;4.53;;;;;;;;;;5060972;28;20652;-80
2021/12/25 03:20:07;;;;;;;5.68;5.18;;;;;;;;;;5072472;28;20205;-79
2021/12/25 03:22:34;;;;;;;5.20;4.80;;;;;;;;;;5055326;28;20206;-79
2021/12/25 03:25:01;;;;;;;4.90;4.40;;;;;;;;;;5047213;28;20222;-80
2021/12/25 03:27:29;;;;;;;4.60;4.20;;;;;;;;;;5052652;28;20613;-79
2021/12/25 03:29:56;;;;;;;5.30;4.82;;;;;;;;;;5052394;28;20226;-80
2021/12/25 03:32:24;;;;;;;4.68;4.28;;;;;;;;;;5043878;28;20570;-80
2021/12/25 03:34:51;;;;;;;4.90;4.05;;;;;;;;;;5043006;28;20196;-80
2021/12/25 03:37:18;;;;;;;5.35;4.72;;;;;;;;;;5051719;28;20229;-80
2021/12/25 03:39:45;;;;;;;4.72;4.38;;;;;;;;;;5051997;28;20195;-80
2021/12/25 03:42:12;;;;;;;4.85;4.45;;;;;;;;;;5045312;28;20209;-80
2021/12/25 03:44:40;;;;;;;4.50;4.10;;;;;;;;;;5043737;28;20195;-80
2021/12/25 03:47:21;;;;;;;5.93;4.82;;;;;;;;;;5046237;28;20196;-81
2021/12/25 03:58:07;;;;;;;3.97;3.67;;;;;;;;;;5052888;28;20249;-80
2021/12/25 04:00:37;;;;;;;3.92;3.63;;;;;;;;;;5043759;28;20214;-80
2021/12/25 04:03:09;;;;;;;3.85;3.55;;;;;;;;;;5041211;28;20235;-80
2021/12/25 04:05:39;;;;;;;3.42;3.13;;;;;;;;;;5044266;28;20226;-78
2021/12/25 04:08:08;;;;;;;3.20;2.90;;;;;;;;;;5052652;28;20589;-78
2021/12/25 04:10:37;;;;;;;4.15;3.33;;;;;;;;;;5046626;28;20208;-79
2021/12/25 04:13:05;;;;;;;3.45;3.15;;;;;;;;;;5040006;28;20195;-80
2021/12/25 04:15:33;;;;;;;4.82;4.28;;;;;;;;;;5055234;28;20198;-80
2021/12/25 04:18:01;;;;;;;2.85;2.65;;;;;;;;;;5060972;28;20202;-79
2021/12/25 04:20:29;;;;;;;6.75;3.50;;;;;;;;;;5049904;28;20202;-80
2021/12/25 04:23:01;;;;;;;4.80;3.03;;;;;;;;;;5049929;28;20222;-79
2021/12/25 04:25:30;;;;;;;3.13;2.85;;;;;;;;;;5047701;28;20613;-80
2021/12/25 04:28:03;;;;;;;3.75;3.42;;;;;;;;;;5049126;28;20199;-79
2021/12/25 04:30:39;;;;;;;3.45;3.15;;;;;;;;;;5051498;28;20205;-78
2021/12/25 04:42:35;;;;;;;3.25;2.95;;;;;;;;;;5045083;28;20210;-78
2021/12/25 05:03:45;;;;;;;3.17;2.90;;;;;;;;;;5053737;28;20241;-78
2021/12/25 05:06:14;;;;;;;3.35;2.88;;;;;;;;;;5051541;28;20694;-77
2021/12/25 05:08:41;;;;;;;3.22;2.90;;;;;;;;;;5043754;28;20203;-79
2021/12/25 05:11:08;;;;;;;3.00;2.70;;;;;;;;;;5046108;28;20655;-78
2021/12/25 05:13:35;;;;;;;3.47;3.17;;;;;;;;;;5050070;28;20202;-79
2021/12/25 05:16:03;;;;;;;3.03;2.83;;;;;;;;;;5048543;28;20195;-77
2021/12/25 05:18:30;;;;;;;3.22;2.90;;;;;;;;;;5043177;28;20261;-79
2021/12/25 05:20:57;;;;;;;2.88;2.67;;;;;;;;;;5050074;28;20297;-79
2021/12/25 05:23:26;;;;;;;3.97;3.58;;;;;;;;;;5053762;28;20202;-77
2021/12/25 05:25:54;;;;;;;2.90;2.70;;;;;;;;;;5044797;28;20222;-78
2021/12/25 05:28:25;;;;;;;3.13;2.92;;;;;;;;;;5045358;28;20298;-77
2021/12/25 05:30:53;;;;;;;3.35;3.05;;;;;;;;;;5053456;28;20692;-76
2021/12/25 05:33:21;;;;;;;3.05;2.85;;;;;;;;;;5048094;28;20814;-77
2021/12/25 05:35:48;;;;;;;7.20;3.17;;;;;;;;;;5042052;28;20194;-77
2021/12/25 05:38:16;;;;;;;2.55;2.35;;;;;;;;;;5059952;28;20198;-77
2021/12/25 05:40:45;;;;;;;3.92;3.60;;;;;;;;;;5046824;28;20205;-77
2021/12/25 05:43:12;;;;;;;3.17;2.78;;;;;;;;;;5050647;28;20229;-78
2021/12/25 05:45:39;;;;;;;4.70;3.10;;;;;;;;;;5050544;28;20222;-77
2021/12/25 05:48:07;;;;;;;3.55;3.25;;;;;;;;;;5036071;28;20210;-76
2021/12/25 05:50:34;;;;;;;2.90;2.70;;;;;;;;;;5045768;28;20195;-77
2021/12/25 05:53:01;;;;;;;3.00;2.80;;;;;;;;;;5053763;28;20198;-77
2021/12/25 05:55:28;;;;;;;3.22;2.97;;;;;;;;;;5043514;28;20203;-78
2021/12/25 05:57:57;;;;;;;3.13;2.88;;;;;;;;;;5053839;28;20195;-77
2021/12/25 06:00:24;;;;;;;3.40;3.10;;;;;;;;;;5052330;28;20223;-78
2021/12/25 06:02:52;;;;;;;3.75;3.05;;;;;;;;;;5047571;28;20206;-78
2021/12/25 06:05:19;;;;;;;3.05;2.85;;;;;;;;;;5045832;28;20214;-78
2021/12/25 06:07:47;;;;;;;3.92;3.63;;;;;;;;;;5054208;28;20199;-78
2021/12/25 06:10:14;;;;;;;3.65;3.35;;;;;;;;;;5055307;28;20210;-78
2021/12/25 06:12:42;;;;;;;5.10;3.75;;;;;;;;;;5040341;28;20281;-78
2021/12/25 06:15:11;;;;;;;4.05;3.75;;;;;;;;;;5052547;28;20574;-78
2021/12/25 06:17:38;;;;;;;4.10;3.80;;;;;;;;;;5038840;28;20680;-78
2021/12/25 06:20:06;;;;;;;3.60;3.25;;;;;;;;;;5058112;28;20201;-77
2021/12/25 06:22:33;;;;;;;4.10;3.70;;;;;;;;;;5069142;28;20670;-77
2021/12/25 06:25:00;;;;;;;5.32;4.07;;;;;;;;;;5047715;28;20199;-77
2021/12/25 06:27:27;;;;;;;4.55;4.10;;;;;;;;;;5049704;28;20403;-77
2021/12/25 06:29:55;;;;;;;4.05;3.60;;;;;;;;;;5060245;28;20214;-77
2021/12/25 06:32:23;;;;;;;4.10;3.70;;;;;;;;;;5041768;28;20372;-78
2021/12/25 06:34:50;;;;;;;4.53;4.13;;;;;;;;;;5054124;28;20198;-77
2021/12/25 06:37:18;;;;;;;5.90;3.63;;;;;;;;;;5049432;28;20195;-77
2021/12/25 06:39:47;;;;;;;4.88;4.47;;;;;;;;;;5046819;28;20290;-77
2021/12/25 06:42:14;;;;;;;5.00;4.60;;;;;;;;;;5054835;28;20253;-80
2021/12/25 06:44:41;;;;;;;4.57;3.83;;;;;;;;;;5050332;28;20667;-78
2021/12/25 06:47:08;;;;;;;4.13;3.72;;;;;;;;;;5045973;28;20540;-81
2021/12/25 06:49:37;;;;;;;4.20;3.80;;;;;;;;;;5050779;28;20199;-78
2021/12/25 06:52:04;;;;;;;4.43;4.10;;;;;;;;;;5054463;28;20199;-78
2021/12/25 06:54:31;;;;;;;4.28;3.88;;;;;;;;;;5050655;28;20198;-79
2021/12/25 06:56:58;;;;;;;4.28;3.88;;;;;;;;;;5063650;28;20421;-79
2021/12/25 06:59:25;;;;;;;3.45;3.15;;;;;;;;;;5053581;28;20582;-77
2021/12/25 07:01:53;;;;;;;3.72;3.42;;;;;;;;;;5047273;28;20652;-77
2021/12/25 07:04:20;;;;;;;5.65;3.33;;;;;;;;;;5037051;28;20747;-77
2021/12/25 07:06:48;;;;;;;4.18;3.72;;;;;;;;;;5050001;28;20594;-77
2021/12/25 07:09:15;;;;;;;3.47;3.15;;;;;;;;;;5052351;28;20685;-78
2021/12/25 07:11:43;;;;;;;4.57;3.00;;;;;;;;;;5048412;28;20194;-81
2021/12/25 07:14:11;;;;;;;4.05;3.65;;;;;;;;;;5051567;28;20203;-81
2021/12/25 07:16:39;;;;;;;3.47;2.80;;;;;;;;;;5048777;28;20203;-78
2021/12/25 07:19:06;;;;;;;3.65;2.95;;;;;;;;;;5047478;28;20658;-78
2021/12/25 07:21:33;;;;;;;4.00;3.55;;;;;;;;;;5054612;28;20191;-77
2021/12/25 07:24:03;;;;;;;4.45;3.75;;;;;;;;;;5051805;28;20202;-78
2021/12/25 07:26:30;;;;;;;5.25;2.60;;;;;;;;;;5063025;28;20696;-78
2021/12/25 07:28:57;;;;;;;3.00;2.80;;;;;;;;;;5056423;28;20194;-79
2021/12/25 07:31:24;;;;;;;3.58;3.33;;;;;;;;;;5047771;28;20205;-77
2021/12/25 07:33:51;;;;;;;2.53;2.33;;;;;;;;;;5057020;28;20214;-78
2021/12/25 07:36:19;;;;;;;2.65;2.45;;;;;;;;;;5050478;28;20191;-79
2021/12/25 07:38:46;;;;;;;2.95;2.75;;;;;;;;;;5049565;28;20209;-78
2021/12/25 07:41:14;;;;;;;2.50;2.30;;;;;;;;;;5050040;28;20751;-78
2021/12/25 07:43:42;;;;;;;2.75;1.90;;;;;;;;;;5055272;28;20195;-78
2021/12/25 07:46:09;;;;;;;3.55;2.40;;;;;;;;;;5046619;28;20219;-78
2021/12/25 07:48:36;;;;;;;4.03;2.22;;;;;;;;;;5044082;28;20570;-78
2021/12/25 07:51:03;;;;;;;2.30;1.65;;;;;;;;;;5037662;28;20203;-79
2021/12/25 07:53:31;;;;;;;2.58;2.35;;;;;;;;;;5046224;28;20198;-78
2021/12/25 07:55:58;;;;;;;1.77;1.67;;;;;;;;;;5045060;28;20191;-79
2021/12/25 07:58:26;;;;;;;1.73;1.55;;;;;;;;;;5046318;28;20702;-78
2021/12/25 08:00:54;;;;;;;3.88;1.77;;;;;;;;;;5054064;28;20710;-77
2021/12/25 08:03:21;;;;;;;2.25;1.92;;;;;;;;;;5048626;28;20203;-79
2021/12/25 08:05:48;;;;;;;1.83;1.52;;;;;;;;;;5048680;28;20195;-81
2021/12/25 08:08:16;;;;;;;1.65;1.48;;;;;;;;;;5049048;28;20221;-83
2021/12/25 08:10:43;;;;;;;1.65;1.25;;;;;;;;;;5050488;28;20195;-83
2021/12/25 08:13:13;;;;;;;2.47;1.60;;;;;;;;;;5050154;28;20253;-79
2021/12/25 08:15:42;;;;;;;2.10;1.33;;;;;;;;;;5042892;28;20237;-77
2021/12/25 08:18:10;;;;;;;1.55;1.45;;;;;;;;;;5044151;28;20199;-76
2021/12/25 08:20:38;;;;;;;1.70;1.60;;;;;;;;;;5046930;28;20194;-81
2021/12/25 08:23:05;;;;;;;1.70;1.52;;;;;;;;;;5046877;28;20194;-82
2021/12/25 08:25:32;;;;;;;1.77;1.17;;;;;;;;;;5044031;28;20638;-84
2021/12/25 08:27:59;;;;;;;2.00;1.65;;;;;;;;;;5039271;28;20214;-83
2021/12/25 08:30:27;;;;;;;1.55;1.25;;;;;;;;;;5044656;28;20678;-80
2021/12/25 08:32:57;;;;;;;2.97;1.05;;;;;;;;;;5043611;28;20198;-84
2021/12/25 08:35:26;;;;;;;1.80;1.50;;;;;;;;;;5045552;28;20218;-81
2021/12/25 08:37:53;;;;;;;4.25;1.80;;;;;;;;;;5044751;28;20195;-84
2021/12/25 08:40:21;;;;;;;1.77;1.67;;;;;;;;;;5046655;28;20203;-80
2021/12/25 08:42:52;;;;;;;2.17;1.50;;;;;;;;;;5044452;28;20566;-82
2021/12/25 08:48:07;;;;;;;4.00;1.10;;;;;;;;;;5043852;28;20226;-82
2021/12/25 08:50:35;;;;;;;2.28;1.88;;;;;;;;;;5044247;28;20195;-79
2021/12/25 08:53:02;;;;;;;1.30;1.10;;;;;;;;;;5045684;28;20210;-77
2021/12/25 08:55:29;;;;;;;2.45;1.25;;;;;;;;;;5052474;28;20566;-80
2021/12/25 08:57:56;;;;;;;1.63;1.30;;;;;;;;;;5045498;28;20217;-79
2021/12/25 09:00:25;;;;;;;3.85;1.48;;;;;;;;;;5048303;28;20226;-78
2021/12/25 09:02:52;;;;;;;1.65;1.20;;;;;;;;;;5047843;28;20198;-79
2021/12/25 09:05:21;;;;;;;2.33;1.58;;;;;;;;;;5048355;28;20563;-79
2021/12/25 09:07:48;;;;;;;2.58;1.90;;;;;;;;;;5060786;28;20225;-79
2021/12/25 09:10:15;;;;;;;2.10;1.20;;;;;;;;;;5049844;28;20199;-78
2021/12/25 09:12:44;;;;;;;2.63;1.35;;;;;;;;;;5052037;28;20199;-79
2021/12/25 09:15:12;;;;;;;1.92;1.60;;;;;;;;;;5055681;28;20203;-78
2021/12/25 09:17:42;;;;;;;2.22;1.88;;;;;;;;;;5054243;28;20210;-78
2021/12/25 09:20:10;;;;;;;2.35;1.67;;;;;;;;;;5055410;28;20196;-78
2021/12/25 09:22:39;;;;;;;1.63;1.48;;;;;;;;;;5046034;28;20668;-78
2021/12/25 09:25:06;;;;;;;3.75;1.35;;;;;;;;;;5044759;28;20213;-78
2021/12/25 09:27:33;;;;;;;2.78;1.80;;;;;;;;;;5047748;28;20222;-78
2021/12/25 09:30:00;;;;;;;2.47;1.45;;;;;;;;;;5049259;28;20199;-79
2021/12/25 09:32:27;;;;;;;2.20;1.20;;;;;;;;;;5056602;28;20225;-78
2021/12/25 09:34:55;;;;;;;2.97;1.67;;;;;;;;;;5060732;28;20289;-80
2021/12/25 09:37:23;;;;;;;3.88;2.00;;;;;;;;;;5051910;28;20198;-78
2021/12/25 09:39:52;;;;;;;2.00;1.80;;;;;;;;;;5057262;28;20186;-78
2021/12/25 09:42:22;;;;;;;2.17;1.65;;;;;;;;;;5035991;28;20210;-79
2021/12/25 09:44:49;;;;;;;2.53;1.33;;;;;;;;;;5056163;28;20236;-79
2021/12/25 09:47:16;;;;;;;2.42;1.42;;;;;;;;;;5046381;28;20234;-79
2021/12/25 09:49:43;;;;;;;2.10;1.58;;;;;;;;;;5053682;28;20211;-79
2021/12/25 09:52:10;;;;;;;2.97;1.70;;;;;;;;;;5048530;28;20198;-79
2021/12/25 09:54:37;;;;;;;2.58;1.73;;;;;;;;;;5052254;28;20688;-79
2021/12/25 09:57:08;;;;;;;2.05;1.50;;;;;;;;;;5046279;28;20593;-78
2021/12/25 09:59:35;;;;;;;2.38;1.65;;;;;;;;;;5047710;28;20226;-78
2021/12/25 10:02:02;;;;;;;2.38;1.80;;;;;;;;;;5045821;28;20627;-79
2021/12/25 10:04:34;;;;;;;2.55;1.35;;;;;;;;;;5045714;28;20718;-79
2021/12/25 10:07:12;;;;;;;2.00;1.50;;;;;;;;;;5052508;28;20238;-79
2021/12/25 10:09:39;;;;;;;2.95;1.83;;;;;;;;;;5052889;28;20647;-78
2021/12/25 10:12:09;;;;;;;3.05;1.48;;;;;;;;;;5046607;28;20202;-79
2021/12/25 10:14:37;;;;;;;2.22;1.60;;;;;;;;;;5053159;28;20194;-78
2021/12/25 10:17:22;;;;;;;2.63;1.55;;;;;;;;;;5049303;28;20282;-79
2021/12/25 10:20:00;;;;;;;2.05;1.42;;;;;;;;;;5052518;28;20194;-78
2021/12/25 10:22:28;;;;;;;2.70;1.85;;;;;;;;;;5051236;28;20198;-79
2021/12/25 10:25:06;;;;;;;3.45;1.70;;;;;;;;;;5050543;28;20650;-78
2021/12/25 10:27:36;;;;;;;1.50;1.10;;;;;;;;;;5041848;28;20689;-78
2021/12/25 10:30:09;;;;;;;4.43;1.60;;;;;;;;;;5047507;28;20186;-79
2021/12/25 10:32:39;;;;;;;3.83;1.85;;;;;;;;;;5046978;28;20210;-79
2021/12/25 10:35:14;;;;;;;2.63;1.40;;;;;;;;;;5051234;28;20249;-78
2021/12/25 10:37:42;;;;;;;3.20;1.52;;;;;;;;;;5052443;28;20187;-78
2021/12/25 10:40:18;;;;;;;2.67;1.15;;;;;;;;;;5058438;28;20194;-79
2021/12/25 10:42:46;;;;;;;5.00;2.00;;;;;;;;;;5047126;28;20194;-78
2021/12/25 10:45:14;;;;;;;2.42;2.20;;;;;;;;;;5052169;28;20662;-78
2021/12/25 10:47:42;;;;;;;2.03;1.83;;;;;;;;;;5033839;28;20219;-78
2021/12/25 10:50:11;;;;;;;2.50;1.65;;;;;;;;;;5047014;28;20187;-79
2021/12/25 10:52:41;;;;;;;1.60;1.50;;;;;;;;;;5050953;28;20192;-79
2021/12/25 10:55:15;;;;;;;3.05;1.58;;;;;;;;;;5051109;28;20643;-78
2021/12/25 10:57:43;;;;;;;2.70;1.52;;;;;;;;;;5053096;28;20194;-80
2021/12/25 11:00:13;;;;;;;1.92;1.40;;;;;;;;;;5047490;28;20706;-80
2021/12/25 11:02:42;;;;;;;1.50;1.35;;;;;;;;;;5049994;28;20199;-80
2021/12/25 11:05:19;;;;;;;1.90;1.55;;;;;;;;;;5043818;28;20578;-80
2021/12/25 11:07:47;;;;;;;1.80;1.25;;;;;;;;;;5049372;28;20214;-78
2021/12/25 11:10:15;;;;;;;1.98;1.25;;;;;;;;;;5049875;28;20191;-79
2021/12/25 11:12:42;;;;;;;1.58;1.30;;;;;;;;;;5049104;28;20209;-79
2021/12/25 11:15:12;;;;;;;1.70;1.40;;;;;;;;;;5051619;28;20210;-79
2021/12/25 11:17:41;;;;;;;1.10;1.00;;;;;;;;;;5049826;28;20278;-78
2021/12/25 11:20:17;;;;;;;2.63;1.40;;;;;;;;;;5049477;28;20201;-78
2021/12/25 11:22:49;;;;;;;1.35;1.20;;;;;;;;;;5036737;28;20209;-78
2021/12/25 11:25:17;;;;;;;5.05;1.65;;;;;;;;;;5049224;28;20213;-79
2021/12/25 11:27:45;;;;;;;2.33;1.85;;;;;;;;;;5049404;28;20269;-79
2021/12/25 11:30:14;;;;;;;4.38;1.73;;;;;;;;;;5047045;28;20662;-77
2021/12/25 11:32:41;;;;;;;2.00;1.90;;;;;;;;;;5047369;28;20195;-78
2021/12/25 11:35:10;;;;;;;4.40;1.90;;;;;;;;;;5055376;28;20203;-78
2021/12/25 11:37:37;;;;;;;2.88;1.40;;;;;;;;;;5045188;28;20245;-79
2021/12/25 11:40:06;;;;;;;2.58;1.85;;;;;;;;;;5051914;28;20199;-79
2021/12/25 11:42:34;;;;;;;1.60;1.25;;;;;;;;;;5053215;28;20306;-80
2021/12/25 11:45:11;;;;;;;3.90;1.65;;;;;;;;;;5053357;28;20245;-79
2021/12/25 11:47:40;;;;;;;1.38;1.10;;;;;;;;;;5048881;28;20222;-79
2021/12/25 11:50:09;;;;;;;1.30;1.02;;;;;;;;;;5050032;28;20204;-78
2021/12/25 11:52:42;;;;;;;2.45;1.17;;;;;;;;;;5044958;28;20195;-78
2021/12/25 11:55:28;;;;;;;2.75;1.60;;;;;;;;;;5038932;28;20213;-79
2021/12/25 11:58:04;;;;;;;3.20;1.10;;;;;;;;;;5045106;28;20195;-79
2021/12/25 12:00:35;;;;;;;2.95;1.50;;;;;;;;;;5045259;28;20214;-78
2021/12/25 12:03:04;;;;;;;2.03;1.33;;;;;;;;;;5041299;28;20211;-77
2021/12/25 12:05:32;;;;;;;2.10;1.20;;;;;;;;;;5044289;28;20199;-78
2021/12/25 12:08:02;;;;;;;1.70;1.23;;;;;;;;;;5049453;28;20209;-79
2021/12/25 12:10:48;;;;;;;2.33;1.40;;;;;;;;;;5043056;28;20223;-79
2021/12/25 12:13:16;;;;;;;1.50;1.10;;;;;;;;;;5049753;28;20195;-78
2021/12/25 12:15:47;;;;;;;1.67;1.10;;;;;;;;;;5040546;28;20199;-79
2021/12/25 12:18:35;;;;;;;2.35;1.50;;;;;;;;;;5044451;28;20309;-78
2021/12/25 12:21:08;;;;;;;1.70;1.35;;;;;;;;;;5040467;28;20202;-79
2021/12/25 12:23:42;;;;;;;1.52;1.13;;;;;;;;;;5046487;28;20655;-78
2021/12/25 12:26:12;;;;;;;1.85;1.10;;;;;;;;;;5046530;28;20198;-79
2021/12/25 12:28:47;;;;;;;2.55;1.20;;;;;;;;;;5042089;28;20223;-77
2021/12/25 12:31:33;;;;;;;3.30;1.20;;;;;;;;;;5046859;28;20206;-79
2021/12/25 12:34:02;;;;;;;1.45;1.27;;;;;;;;;;5036865;28;20191;-78
2021/12/25 12:36:30;;;;;;;1.23;1.13;;;;;;;;;;5045947;28;20210;-78
2021/12/25 12:39:18;;;;;;;2.10;0.98;;;;;;;;;;5040271;28;20206;-77
2021/12/25 12:41:52;;;;;;;2.30;1.08;;;;;;;;;;5043825;28;20501;-79
2021/12/25 12:44:26;;;;;;;1.05;0.88;;;;;;;;;;5038203;28;20245;-78
2021/12/25 12:47:04;;;;;;;1.70;1.25;;;;;;;;;;5037468;28;20199;-78
2021/12/25 12:49:54;;;;;;;2.22;1.20;;;;;;;;;;5044280;28;20557;-79
2021/12/25 12:52:23;;;;;;;1.65;1.25;;;;;;;;;;5046418;28;20419;-78
2021/12/25 12:54:51;;;;;;;1.23;0.90;;;;;;;;;;5033175;28;20207;-78
2021/12/25 12:57:20;;;;;;;1.33;1.00;;;;;;;;;;5054643;28;20206;-78
2021/12/25 12:59:49;;;;;;;1.45;1.13;;;;;;;;;;5045302;28;20225;-80
2021/12/25 13:02:16;;;;;;;3.15;1.10;;;;;;;;;;5038216;28;20227;-79
2021/12/25 13:04:46;;;;;;;1.92;1.00;;;;;;;;;;5046494;28;20551;-79
2021/12/25 13:07:13;;;;;;;2.05;1.33;;;;;;;;;;5044009;28;20202;-79
2021/12/25 13:09:46;;;;;;;1.60;1.08;;;;;;;;;;5046059;28;20225;-80
2021/12/25 13:12:29;;;;;;;1.42;0.95;;;;;;;;;;5036775;28;20563;-80
2021/12/25 13:15:04;;;;;;;1.20;1.10;;;;;;;;;;5039373;28;20195;-79
2021/12/25 13:17:31;;;;;;;1.55;0.90;;;;;;;;;;5038279;28;20217;-79
2021/12/25 13:20:00;;;;;;;1.10;1.00;;;;;;;;;;5041099;28;20195;-79
2021/12/25 13:22:27;;;;;;;1.05;0.70;;;;;;;;;;5039811;28;20211;-80
2021/12/25 13:25:04;;;;;;;1.38;0.80;;;;;;;;;;5045864;28;20202;-80
2021/12/25 13:27:31;;;;;;;2.85;0.90;;;;;;;;;;5055814;28;20242;-79
2021/12/25 13:30:04;;;;;;;2.10;1.10;;;;;;;;;;5049243;28;20195;-79
2021/12/25 13:32:31;;;;;;;1.02;0.80;;;;;;;;;;5049934;28;20203;-81
2021/12/25 13:35:00;;;;;;;1.10;0.80;;;;;;;;;;5040410;28;20199;-79
2021/12/25 13:37:27;;;;;;;1.13;0.82;;;;;;;;;;5052386;28;20290;-79
2021/12/25 13:39:54;;;;;;;1.50;0.88;;;;;;;;;;5046540;28;20203;-79
2021/12/25 13:42:21;;;;;;;1.30;0.88;;;;;;;;;;5040684;28;20202;-79
2021/12/25 13:44:49;;;;;;;1.55;1.05;;;;;;;;;;5048066;28;20199;-79
2021/12/25 13:47:18;;;;;;;1.23;0.85;;;;;;;;;;5046172;28;20194;-80
2021/12/25 13:49:47;;;;;;;1.42;1.10;;;;;;;;;;5043801;28;20549;-79
2021/12/25 13:52:23;;;;;;;1.15;0.95;;;;;;;;;;5047344;28;20646;-79
2021/12/25 13:54:51;;;;;;;1.75;0.88;;;;;;;;;;5044444;28;20198;-79
2021/12/25 13:57:18;;;;;;;1.35;1.00;;;;;;;;;;5046139;28;20198;-80
2021/12/25 13:59:49;;;;;;;1.35;1.05;;;;;;;;;;5044709;28;20269;-80
2021/12/25 14:02:17;;;;;;;1.20;1.08;;;;;;;;;;5042354;28;20713;-79
2021/12/25 14:04:44;;;;;;;1.90;0.80;;;;;;;;;;5044259;28;20195;-79
2021/12/25 14:07:13;;;;;;;1.00;0.80;;;;;;;;;;5046313;28;20194;-80
2021/12/25 14:09:41;;;;;;;1.20;0.90;;;;;;;;;;5046160;28;20231;-80
2021/12/25 14:12:08;;;;;;;1.98;0.82;;;;;;;;;;5035284;28;20199;-80
2021/12/25 14:14:36;;;;;;;2.75;1.10;;;;;;;;;;5049113;28;20217;-79
2021/12/25 14:17:03;;;;;;;2.40;1.23;;;;;;;;;;5047441;28;20202;-78
2021/12/25 14:19:31;;;;;;;1.50;0.95;;;;;;;;;;5049559;28;20213;-80
2021/12/25 14:22:00;;;;;;;1.40;1.30;;;;;;;;;;5048772;28;20293;-81
2021/12/25 14:24:31;;;;;;;1.20;0.80;;;;;;;;;;5041263;28;20202;-80
2021/12/25 14:27:08;;;;;;;1.10;0.80;;;;;;;;;;5037791;28;20630;-81
2021/12/25 14:29:35;;;;;;;1.50;0.98;;;;;;;;;;5050700;28;20214;-80
2021/12/25 14:32:02;;;;;;;1.15;1.00;;;;;;;;;;5051251;28;20210;-80
2021/12/25 14:34:29;;;;;;;1.38;0.90;;;;;;;;;;5050333;28;20198;-80
2021/12/25 14:36:56;;;;;;;1.10;0.90;;;;;;;;;;5052021;28;20210;-80
2021/12/25 14:39:23;;;;;;;2.05;1.00;;;;;;;;;;5054797;28;20191;-80
2021/12/25 14:41:52;;;;;;;1.85;1.00;;;;;;;;;;5036010;28;20402;-80
2021/12/25 14:44:21;;;;;;;2.05;0.90;;;;;;;;;;5043147;28;20199;-80
2021/12/25 14:46:50;;;;;;;5.45;0.90;;;;;;;;;;5048072;28;20195;-79
2021/12/25 14:49:18;;;;;;;1.65;0.98;;;;;;;;;;5055106;28;20222;-80
2021/12/25 14:51:45;;;;;;;2.03;1.20;;;;;;;;;;5046994;28;20202;-80
2021/12/25 14:54:13;;;;;;;1.20;1.10;;;;;;;;;;5053752;28;20193;-79
2021/12/25 14:56:41;;;;;;;6.00;1.58;;;;;;;;;;5050432;28;20202;-78
2021/12/25 14:59:09;;;;;;;1.33;1.20;;;;;;;;;;5048325;28;20213;-77
2021/12/25 15:01:39;;;;;;;1.20;1.10;;;;;;;;;;5050308;28;20205;-78
2021/12/25 15:04:09;;;;;;;3.65;1.42;;;;;;;;;;5046201;28;20210;-78
2021/12/25 15:06:37;;;;;;;1.58;1.17;;;;;;;;;;5045948;28;20203;-78
2021/12/25 15:09:05;;;;;;;13.20;1.70;;;;;;;;;;5042472;28;20674;-79
2021/12/25 15:11:34;;;;;;;1.88;1.20;;;;;;;;;;5042176;28;20199;-77
2021/12/25 15:14:02;;;;;;;2.00;1.40;;;;;;;;;;5058427;28;20207;-78
2021/12/25 15:16:37;;;;;;;1.75;1.00;;;;;;;;;;5046476;28;20210;-77
2021/12/25 15:19:05;;;;;;;1.63;1.30;;;;;;;;;;5038119;28;20658;-77
2021/12/25 15:21:42;;;;;;;1.33;0.95;;;;;;;;;;5048737;28;20198;-77
2021/12/25 15:24:10;;;;;;;2.90;1.27;;;;;;;;;;5046080;28;20566;-77
2021/12/25 15:26:41;;;;;;;1.33;1.20;;;;;;;;;;5041536;28;20210;-77
2021/12/25 15:29:09;;;;;;;3.20;1.35;;;;;;;;;;5047726;28;20214;-77
2021/12/25 15:31:36;;;;;;;2.63;1.90;;;;;;;;;;5043560;28;20203;-77
2021/12/25 15:34:07;;;;;;;1.52;1.20;;;;;;;;;;5039080;28;20646;-77
2021/12/25 15:36:42;;;;;;;1.30;1.00;;;;;;;;;;5040223;28;20207;-77
2021/12/25 15:39:11;;;;;;;2.25;1.08;;;;;;;;;;5041496;28;20562;-76
2021/12/25 15:41:38;;;;;;;1.30;1.20;;;;;;;;;;5044591;28;20226;-77
2021/12/25 15:44:05;;;;;;;2.63;1.70;;;;;;;;;;5048549;28;20738;-77
2021/12/25 15:46:32;;;;;;;2.05;1.38;;;;;;;;;;5045167;28;20203;-77
2021/12/25 15:49:00;;;;;;;1.50;1.15;;;;;;;;;;5043116;28;20224;-78
2021/12/25 15:51:28;;;;;;;2.55;1.50;;;;;;;;;;5048629;28;20224;-79